Main page
METAR-TAF:

METAR-TAF

Airports :

Ponta Delgada, Azores, Portugal

João Paulo II Airport

latitude: 37-44N, longitude: 025-42W, elevation: 71 m

Current weather observation

The report was made 37 minutes ago, at 18:30 UTC
Wind 5 kt from the South/Southwest
Temperature 15°C
Humidity 67%
Pressure 1032 hPa
Visibility 10 km or more
Few clouds at a height of 2200 ft
Broken clouds at a height of 3000 ft

METAR: LPPD 191830Z 20005KT 9999 FEW022 BKN030 15/09 Q1032

Time: 18:07 (19:07 UTC)

Forecast

The report was made 2 hours and 7 minutes ago, at 17:00 UTC
Forecast valid from 19 at 18 UTC to 20 at 18 UTC
Wind 5 kt from the South/Southwest
Visibility 10 km or more
Few clouds at a height of 2000 ft
Broken clouds at a height of 3000 ft
Temporary
from 19 at 18 UTC to 20 at 18 UTC
Scattered clouds at a height of 1500 ft
Becoming
from 20 at 12 UTC to 20 at 14 UTC
Wind 13 kt from the South/Southwest

TAF: LPPD 191700Z 1918/2018 21005KT 9999 FEW020 BKN030 TEMPO 1918/2018 SCT015 BECMG 2012/2014 20013KT

Weather observations and forecasts of more than 4000 airports (METAR and TAF reports).

The available stations are represented by yellow and red dots on the map.

Hover mouse over dot to see the name of the station.

Then click to see weather observations and forecasts.

To change the map : click on the green buttons with a black cross to zoom in, on the green button with a dash to zoom out, or on the green arrows for adjacent maps.


METAR-TAF: